Terminal Aerodrome Forecast
Issued by NWS

Home | Current Version | Previous Version | Graphics & Text | Print | Product List | Glossary Off
Versions: 1 2 3 4 5 6 7 8 9 10 11 12 13 14 15 16 17 18 19 20 21 22 23 24

000
FTUS43 KOAX 241149 CCB
TAFCDR
TAF COR
KCDR 241149Z 2412/2512 03008KT P6SM SCT006 OVC020
     FM241700 02008KT P6SM VCSH SCT009 OVC015
     FM250000 03008KT P6SM -RA OVC009=

USA.gov is the U.S. government's official web portal to all federal, state and local government web resources and services.